Terminal Aerodrome Forecast
Issued by NWS Jacksonville, FL

Home | Current Version | Previous Version | Text Only | Print | Product List | Glossary On
Versions: 1 2 3 4 5 6 7 8 9 10 11 12 13 14 15 16 17 18 19 20 21 22 23 24 25 26 27 28 29 30 31
849
FTUS42 KJAX 192320
TAFGNV
TAF
KGNV 192320Z 2000/2024 11010KT P6SM SCT035
     FM200500 10004KT 3SM BR BKN003
     FM200800 11003KT 1SM BR OVC002
     FM201300 12008KT P6SM SCT010 BKN020
     FM201600 12010KT P6SM SCT040=

USA.gov is the U.S. government's official web portal to all federal, state and local government web resources and services.